KDSM/DSM METAR and TAF weather

Enter ICAO airport designator
Station Type Date Time Source
KDSM METAR 2020/02/21 02:54 UTC NOAA

KDSM 210254Z 18006KT 10SM CLR M08/M15 A3069 RMK AO2 SLP413 T10831150 58004


Station Type Date Time Source
KDSM Decoded METAR 2020/02/21 02:54 UTC NOAA

DES MOINES INTERNATIONAL, IA, United States (KDSM) 41-32N 93-40W 295M
Feb 20, 2020 - 09:54 PM EST / 2020.02.21 0254 UTC
Wind: from the S (180 degrees) at 7 MPH (6 KT):0
Visibility: 10 mile(s):0
Sky conditions: clear
Temperature: 17.1 F (-8.3 C)
Windchill: 6 F (-14 C):1
Dew Point: 5.0 F (-15.0 C)
Relative Humidity: 58%
Pressure (altimeter): 30.69 in. Hg (1039 hPa)
Pressure tendency: 0.01 inches (0.4 hPa) lower than three hours ago
ob: KDSM 210254Z 18006KT 10SM CLR M08/M15 A3069 RMK AO2 SLP413 T10831150 58004
cycle: 3

Station Type Date Time Source
KDSM TAF 2020/02/20 18:24 UTC NOAA

TAF KDSM 201723Z 2018/2118 33005KT P6SM SKC
FM210000 29005KT P6SM SKC
FM211600 21011G19KT P6SM SKC

Example: see airport list